createdAt,value
2018-03-03T00:00:37.433Z,-7.65
2018-03-03T00:01:47.590Z,-7.66
2018-03-03T00:02:57.775Z,-7.69
2018-03-03T00:04:07.659Z,-7.75
2018-03-03T00:05:17.802Z,-7.72
2018-03-03T00:06:27.995Z,-7.81
2018-03-03T00:07:37.999Z,-7.79
2018-03-03T00:08:48.279Z,-7.7
2018-03-03T00:09:58.156Z,-7.63
2018-03-03T00:11:08.204Z,-7.66
2018-03-03T00:12:17.878Z,-7.5
2018-03-03T00:13:28.158Z,-7.61
2018-03-03T00:14:37.676Z,-7.61
2018-03-03T00:15:47.311Z,-7.51
2018-03-03T00:16:57.451Z,-7.63
2018-03-03T00:18:07.249Z,-7.63
2018-03-03T00:19:17.134Z,-7.59
2018-03-03T00:20:26.718Z,-7.5
2018-03-03T00:21:36.918Z,-7.54
2018-03-03T00:22:46.851Z,-7.48
2018-03-03T00:23:57.018Z,-7.37
2018-03-03T00:25:07.147Z,-7.44
2018-03-03T00:26:17.369Z,-7.55
2018-03-03T00:27:26.982Z,-7.5
2018-03-03T00:28:37.256Z,-7.42
2018-03-03T00:29:47.126Z,-7.47
2018-03-03T00:30:57.039Z,-7.47
2018-03-03T00:32:06.945Z,-7.4
2018-03-03T00:33:16.910Z,-7.45
2018-03-03T00:34:26.678Z,-7.42
2018-03-03T00:35:36.498Z,-7.42
2018-03-03T00:36:46.506Z,-7.37
2018-03-03T00:37:56.649Z,-7.47
2018-03-03T00:39:06.813Z,-7.51
2018-03-03T00:40:16.712Z,-7.54
2018-03-03T00:41:26.599Z,-7.5
2018-03-03T00:42:36.526Z,-7.5
2018-03-03T00:43:46.428Z,-7.52
2018-03-03T00:44:56.786Z,-7.47
2018-03-03T00:46:07.003Z,-7.44
2018-03-03T00:47:16.926Z,-7.5
2018-03-03T00:48:26.836Z,-7.45
2018-03-03T00:49:36.755Z,-7.47
2018-03-03T00:50:46.184Z,-7.5
2018-03-03T00:51:56.340Z,-7.62
2018-03-03T00:53:06.510Z,-7.61
2018-03-03T00:54:15.985Z,-7.58
2018-03-03T00:55:26.105Z,-7.55
2018-03-03T00:56:36.319Z,-7.47
2018-03-03T00:57:46.279Z,-7.55
2018-03-03T00:58:56.563Z,-7.58
2018-03-03T01:00:06.408Z,-7.61
2018-03-03T01:01:15.759Z,-7.63
2018-03-03T01:02:25.884Z,-7.52
2018-03-03T01:03:36.022Z,-7.65
2018-03-03T01:04:46.303Z,-7.51
2018-03-03T01:05:56.460Z,-7.55
2018-03-03T01:07:06.397Z,-7.61
2018-03-03T01:08:16.586Z,-7.48
2018-03-03T01:09:26.134Z,-7.52
2018-03-03T01:10:36.312Z,-7.5
2018-03-03T01:11:46.237Z,-7.51
2018-03-03T01:12:56.030Z,-7.45
2018-03-03T01:14:06.207Z,-7.42
2018-03-03T01:15:16.342Z,-7.47
2018-03-03T01:16:26.195Z,-7.44
2018-03-03T01:17:36.313Z,-7.44
2018-03-03T01:18:46.636Z,-7.5
2018-03-03T01:19:56.785Z,-7.51
2018-03-03T01:21:06.925Z,-7.47
2018-03-03T01:22:17.083Z,-7.44
2018-03-03T01:23:26.834Z,-7.47
2018-03-03T01:24:36.998Z,-7.54
2018-03-03T01:25:47.128Z,-7.51
2018-03-03T01:26:57.258Z,-7.54
2018-03-03T01:28:07.113Z,-7.54
2018-03-03T01:29:17.253Z,-7.52
2018-03-03T01:30:27.410Z,-7.47
2018-03-03T01:31:37.552Z,-7.54
2018-03-03T01:32:47.718Z,-7.63
2018-03-03T01:33:57.570Z,-7.66
2018-03-03T01:35:07.700Z,-7.62
2018-03-03T01:36:17.841Z,-7.65
2018-03-03T01:37:27.750Z,-7.58
2018-03-03T01:38:37.882Z,-7.65
2018-03-03T01:39:48.006Z,-7.63
2018-03-03T01:40:58.254Z,-7.7
2018-03-03T01:42:08.441Z,-7.69
2018-03-03T01:43:18.567Z,-7.79
2018-03-03T01:44:28.666Z,-7.8
2018-03-03T01:45:38.777Z,-7.79
2018-03-03T01:46:48.633Z,-7.83
2018-03-03T01:47:58.764Z,-7.84
2018-03-03T01:49:08.639Z,-7.83
2018-03-03T01:50:18.758Z,-7.9
2018-03-03T01:51:28.919Z,-8.02
2018-03-03T01:52:39.065Z,-8.09
2018-03-03T01:53:49.207Z,-8.19
2018-03-03T01:54:59.309Z,-8.12
2018-03-03T01:56:09.476Z,-8.12
2018-03-03T01:57:19.461Z,-8.2
2018-03-03T01:58:29.396Z,-8.18
2018-03-03T01:59:39.018Z,-8.08
2018-03-03T02:00:49.275Z,-8.22
2018-03-03T02:01:59.390Z,-8.23
2018-03-03T02:03:09.246Z,-8.22
2018-03-03T02:04:19.137Z,-8.2
2018-03-03T02:05:29.300Z,-8.11
2018-03-03T02:06:40.356Z,-8.19
2018-03-03T02:07:50.605Z,-8.19
2018-03-03T02:09:00.729Z,-8.08
2018-03-03T02:10:10.646Z,-8.08
2018-03-03T02:11:20.523Z,-8.01
2018-03-03T02:12:30.674Z,-8.08
2018-03-03T02:13:40.847Z,-8.12
2018-03-03T02:14:50.962Z,-7.99
2018-03-03T02:16:00.826Z,-8.02
2018-03-03T02:17:10.945Z,-8.01
2018-03-03T02:18:21.070Z,-7.95
2018-03-03T02:19:30.679Z,-7.97
2018-03-03T02:20:40.691Z,-7.98
2018-03-03T02:21:50.813Z,-7.93
2018-03-03T02:23:00.787Z,-7.99
2018-03-03T02:24:10.748Z,-7.99
2018-03-03T02:25:21.068Z,-7.99
2018-03-03T02:26:30.911Z,-7.93
2018-03-03T02:27:40.811Z,-7.97
2018-03-03T02:28:51.119Z,-7.86
2018-03-03T02:30:01.244Z,-7.98
2018-03-03T02:31:10.766Z,-7.84
2018-03-03T02:32:20.898Z,-7.99
2018-03-03T02:33:31.254Z,-7.97
2018-03-03T02:34:41.376Z,-7.97
2018-03-03T02:35:51.217Z,-7.99
2018-03-03T02:37:01.353Z,-7.93
2018-03-03T02:38:11.499Z,-8.05
2018-03-03T02:39:21.666Z,-8.05
2018-03-03T02:40:31.939Z,-7.98
2018-03-03T02:41:42.077Z,-8.07
2018-03-03T02:42:52.220Z,-8.07
2018-03-03T02:44:02.468Z,-8.01
2018-03-03T02:45:12.695Z,-8.02
2018-03-03T02:46:22.886Z,-8.12
2018-03-03T02:47:33.320Z,-8.2
2018-03-03T02:48:43.103Z,-8.25
2018-03-03T02:49:52.972Z,-8.28
2018-03-03T02:51:02.627Z,-8.23
2018-03-03T02:52:12.998Z,-8.3
2018-03-03T02:53:23.235Z,-8.39
2018-03-03T02:54:33.434Z,-8.3
2018-03-03T02:55:43.697Z,-8.37
2018-03-03T02:56:54.068Z,-8.47
2018-03-03T02:58:03.934Z,-8.47
2018-03-03T02:59:14.092Z,-8.45
2018-03-03T03:00:23.940Z,-8.45
2018-03-03T03:01:34.272Z,-8.59
2018-03-03T03:02:44.526Z,-8.55
2018-03-03T03:03:54.310Z,-8.58
2018-03-03T03:05:04.503Z,-8.62
2018-03-03T03:06:14.658Z,-8.62
2018-03-03T03:07:24.804Z,-8.6
2018-03-03T03:08:34.967Z,-8.6
2018-03-03T03:09:45.115Z,-8.66
2018-03-03T03:10:55.055Z,-8.65
2018-03-03T03:12:05.185Z,-8.62
2018-03-03T03:13:15.064Z,-8.66
2018-03-03T03:14:25.566Z,-8.69
2018-03-03T03:15:35.726Z,-8.73
2018-03-03T03:16:45.708Z,-8.78
2018-03-03T03:17:55.992Z,-8.83
2018-03-03T03:19:06.131Z,-8.83
2018-03-03T03:20:16.276Z,-8.95
2018-03-03T03:21:26.398Z,-8.88
2018-03-03T03:22:36.520Z,-8.84
2018-03-03T03:23:46.701Z,-8.78
2018-03-03T03:24:57.289Z,-8.83
2018-03-03T03:26:07.397Z,-8.87
2018-03-03T03:27:17.555Z,-8.86
2018-03-03T03:28:27.705Z,-8.81
2018-03-03T03:29:37.889Z,-8.8
2018-03-03T03:30:48.002Z,-8.71
2018-03-03T03:31:57.888Z,-8.77
2018-03-03T03:33:08.265Z,-8.83
2018-03-03T03:34:18.450Z,-8.83
2018-03-03T03:35:28.600Z,-8.77
2018-03-03T03:36:39.171Z,-8.87
2018-03-03T03:37:49.546Z,-8.92
2018-03-03T03:38:59.694Z,-8.92
2018-03-03T03:40:09.822Z,-8.91
2018-03-03T03:41:19.995Z,-8.78
2018-03-03T03:42:30.429Z,-8.8
2018-03-03T03:43:40.512Z,-8.8
2018-03-03T03:44:50.855Z,-8.74
2018-03-03T03:46:01.013Z,-8.62
2018-03-03T03:47:11.402Z,-8.58
2018-03-03T03:48:21.232Z,-8.6
2018-03-03T03:49:31.352Z,-8.6
2018-03-03T03:50:40.952Z,-8.58
2018-03-03T03:51:51.080Z,-8.6
2018-03-03T03:53:01.213Z,-8.59
2018-03-03T03:54:11.333Z,-8.53
2018-03-03T03:55:21.696Z,-8.62
2018-03-03T03:56:31.847Z,-8.62
2018-03-03T03:57:42.078Z,-8.65
2018-03-03T03:58:52.426Z,-8.59
2018-03-03T04:00:02.580Z,-8.56
2018-03-03T04:01:12.945Z,-8.66
2018-03-03T04:02:23.656Z,-8.67
2018-03-03T04:03:33.768Z,-8.67
2018-03-03T04:04:43.995Z,-8.67
2018-03-03T04:05:54.406Z,-8.76
2018-03-03T04:07:04.755Z,-8.66
2018-03-03T04:08:14.930Z,-8.73
2018-03-03T04:09:25.115Z,-8.69
2018-03-03T04:10:35.460Z,-8.73
2018-03-03T04:11:46.118Z,-8.76
2018-03-03T04:12:56.589Z,-8.76
2018-03-03T04:14:06.991Z,-8.88
2018-03-03T04:15:17.363Z,-8.91
2018-03-03T04:16:27.445Z,-8.92
2018-03-03T04:17:37.594Z,-8.98
2018-03-03T04:18:47.731Z,-8.91
2018-03-03T04:19:57.842Z,-8.99
2018-03-03T04:21:08.442Z,-8.91
2018-03-03T04:22:18.803Z,-8.91
2018-03-03T04:23:28.800Z,-8.88
2018-03-03T04:24:38.981Z,-8.92
2018-03-03T04:25:49.745Z,-8.91
2018-03-03T04:26:59.622Z,-9.05
2018-03-03T04:28:09.746Z,-9.06
2018-03-03T04:29:20.493Z,-9.09
2018-03-03T04:30:30.846Z,-9.01
2018-03-03T04:31:41.025Z,-8.91
2018-03-03T04:32:51.604Z,-8.92
2018-03-03T04:34:01.519Z,-8.86
2018-03-03T04:35:11.728Z,-8.83
2018-03-03T04:36:21.879Z,-8.87
2018-03-03T04:37:32.118Z,-8.8
2018-03-03T04:38:42.482Z,-8.83
2018-03-03T04:39:52.839Z,-8.84
2018-03-03T04:41:03.187Z,-8.94
2018-03-03T04:42:13.697Z,-8.86
2018-03-03T04:43:23.591Z,-8.91
2018-03-03T04:44:34.251Z,-8.81
2018-03-03T04:45:45.154Z,-8.76
2018-03-03T04:46:55.601Z,-8.78
2018-03-03T04:48:06.670Z,-8.81
2018-03-03T04:49:17.317Z,-8.77
2018-03-03T04:50:27.491Z,-8.76
2018-03-03T04:51:37.887Z,-8.76
2018-03-03T04:52:48.028Z,-8.77
2018-03-03T04:53:58.187Z,-8.65
2018-03-03T04:55:08.366Z,-8.62
2018-03-03T04:56:18.676Z,-8.71
2018-03-03T04:57:28.840Z,-8.77
2018-03-03T04:58:38.703Z,-8.8
2018-03-03T04:59:48.825Z,-8.8
2018-03-03T05:00:58.703Z,-8.78
2018-03-03T05:02:08.624Z,-8.84
2018-03-03T05:03:18.701Z,-8.87
2018-03-03T05:04:28.217Z,-8.91
2018-03-03T05:05:38.383Z,-8.91
2018-03-03T05:06:48.660Z,-8.86
2018-03-03T05:07:58.799Z,-8.87
2018-03-03T05:09:08.705Z,-8.91
2018-03-03T05:10:18.823Z,-8.88
2018-03-03T05:11:28.513Z,-8.98
2018-03-03T05:12:38.653Z,-9.02
2018-03-03T05:13:48.896Z,-9.05
2018-03-03T05:14:59.011Z,-9.1
2018-03-03T05:16:08.882Z,-9.06
2018-03-03T05:17:19.028Z,-9.15
2018-03-03T05:18:28.929Z,-9.19
2018-03-03T05:19:39.070Z,-9.13
2018-03-03T05:20:49.351Z,-9.09
2018-03-03T05:21:59.256Z,-9.02
2018-03-03T05:23:09.289Z,-9.02
2018-03-03T05:24:19.149Z,-8.98
2018-03-03T05:25:29.272Z,-9.04
2018-03-03T05:26:39.404Z,-8.99
2018-03-03T05:27:49.568Z,-8.98
2018-03-03T05:28:59.221Z,-9.02
2018-03-03T05:30:09.023Z,-9.04
2018-03-03T05:31:18.884Z,-9.05
2018-03-03T05:32:28.743Z,-9.1
2018-03-03T05:33:38.353Z,-9.15
2018-03-03T05:34:48.243Z,-9.1
2018-03-03T05:35:58.292Z,-9.15
2018-03-03T05:37:08.491Z,-9.22
2018-03-03T05:38:18.341Z,-9.16
2018-03-03T05:39:28.274Z,-9.19
2018-03-03T05:40:38.392Z,-9.22
2018-03-03T05:41:48.277Z,-9.22
2018-03-03T05:42:58.410Z,-9.2
2018-03-03T05:44:08.730Z,-9.22
2018-03-03T05:45:18.590Z,-9.19
2018-03-03T05:46:28.495Z,-9.13
2018-03-03T05:47:38.540Z,-9.09
2018-03-03T05:48:48.715Z,-9.05
2018-03-03T05:49:58.618Z,-9.05
2018-03-03T05:51:08.740Z,-9.04
2018-03-03T05:52:18.893Z,-9.09
2018-03-03T05:53:29.042Z,-9.06
2018-03-03T05:54:39.173Z,-9.05
2018-03-03T05:55:49.315Z,-9.04
2018-03-03T05:56:59.447Z,-9.02
2018-03-03T05:58:09.319Z,-9.12
2018-03-03T05:59:19.546Z,-9.22
2018-03-03T06:00:29.677Z,-9.34
2018-03-03T06:01:39.788Z,-9.3
2018-03-03T06:02:49.938Z,-9.35
2018-03-03T06:04:00.186Z,-9.23
2018-03-03T06:05:10.394Z,-9.4
2018-03-03T06:06:20.295Z,-9.35
2018-03-03T06:07:30.459Z,-9.38
2018-03-03T06:08:40.633Z,-9.49
2018-03-03T06:09:50.826Z,-9.43
2018-03-03T06:11:00.995Z,-9.58
2018-03-03T06:12:12.151Z,-9.64
2018-03-03T06:13:22.392Z,-9.56
2018-03-03T06:14:32.715Z,-9.61
2018-03-03T06:15:42.984Z,-9.62
2018-03-03T06:16:53.115Z,-9.58
2018-03-03T06:18:03.310Z,-9.62
2018-03-03T06:19:13.584Z,-9.58
2018-03-03T06:20:23.832Z,-9.58
2018-03-03T06:21:34.022Z,-9.58
2018-03-03T06:22:44.160Z,-9.61
2018-03-03T06:23:54.429Z,-9.67
2018-03-03T06:25:04.589Z,-9.66
2018-03-03T06:26:14.493Z,-9.56
2018-03-03T06:27:24.634Z,-9.61
2018-03-03T06:28:34.836Z,-9.59
2018-03-03T06:29:45.176Z,-9.62
2018-03-03T06:30:55.324Z,-9.56
2018-03-03T06:32:05.491Z,-9.58
2018-03-03T06:33:15.620Z,-9.58
2018-03-03T06:34:25.767Z,-9.52
2018-03-03T06:35:35.885Z,-9.44
2018-03-03T06:36:46.076Z,-9.49
2018-03-03T06:37:56.200Z,-9.41
2018-03-03T06:39:06.375Z,-9.37
2018-03-03T06:40:16.728Z,-9.35
2018-03-03T06:41:26.884Z,-9.25
2018-03-03T06:42:37.054Z,-9.27
2018-03-03T06:43:47.319Z,-9.19
2018-03-03T06:44:57.581Z,-9.06
2018-03-03T06:46:07.713Z,-9.22
2018-03-03T06:47:17.964Z,-9.2
2018-03-03T06:48:28.205Z,-9.12
2018-03-03T06:49:38.554Z,-9.22
2018-03-03T06:50:48.755Z,-9.19
2018-03-03T06:51:58.951Z,-9.3
2018-03-03T06:53:09.086Z,-9.35
2018-03-03T06:54:19.259Z,-9.31
2018-03-03T06:55:29.516Z,-9.37
2018-03-03T06:56:39.809Z,-9.35
2018-03-03T06:57:49.973Z,-9.25
2018-03-03T06:59:00.175Z,-9.19
2018-03-03T07:00:10.412Z,-9.28
2018-03-03T07:01:20.565Z,-9.38
2018-03-03T07:02:30.477Z,-9.38
2018-03-03T07:03:40.637Z,-9.4
2018-03-03T07:04:50.781Z,-9.38
2018-03-03T07:06:00.650Z,-9.4
2018-03-03T07:07:10.480Z,-9.4
2018-03-03T07:08:20.620Z,-9.35
2018-03-03T07:09:30.673Z,-9.31
2018-03-03T07:10:40.444Z,-9.19
2018-03-03T07:11:50.685Z,-9.25
2018-03-03T07:13:00.611Z,-9.34
2018-03-03T07:14:10.740Z,-9.41
2018-03-03T07:15:20.296Z,-9.48
2018-03-03T07:16:30.196Z,-9.49
2018-03-03T07:17:39.519Z,-9.44
2018-03-03T07:18:49.662Z,-9.35
2018-03-03T07:19:59.818Z,-9.43
2018-03-03T07:21:09.354Z,-9.33
2018-03-03T07:22:19.475Z,-9.35
2018-03-03T07:23:29.755Z,-9.25
2018-03-03T07:24:39.894Z,-9.38
2018-03-03T07:25:50.064Z,-9.3
2018-03-03T07:26:59.978Z,-9.16
2018-03-03T07:28:10.151Z,-9.04
2018-03-03T07:29:20.087Z,-8.91
2018-03-03T07:30:29.801Z,-8.86
2018-03-03T07:31:39.924Z,-8.83
2018-03-03T07:32:50.069Z,-8.76
2018-03-03T07:34:00.195Z,-8.6
2018-03-03T07:35:10.353Z,-8.62
2018-03-03T07:36:20.213Z,-8.6
2018-03-03T07:37:30.372Z,-8.49
2018-03-03T07:38:40.569Z,-8.37
2018-03-03T07:39:50.720Z,-8.07
2018-03-03T07:41:00.661Z,-7.44
2018-03-03T07:42:10.777Z,-6.68
2018-03-03T07:43:20.925Z,-5.96
2018-03-03T07:44:30.734Z,-5.32
2018-03-03T07:45:40.891Z,-4.79
2018-03-03T07:46:51.028Z,-4.39
2018-03-03T07:48:01.183Z,-3.94
2018-03-03T07:49:11.354Z,-3.63
2018-03-03T07:50:21.241Z,-3.31
2018-03-03T07:51:31.119Z,-3.01
2018-03-03T07:52:41.272Z,-2.62
2018-03-03T07:53:51.416Z,-2.25
2018-03-03T07:55:01.653Z,-1.94
2018-03-03T07:56:11.786Z,-1.46
2018-03-03T07:57:21.769Z,-1.12
2018-03-03T07:58:32.090Z,-0.89
2018-03-03T07:59:43.406Z,-0.85
2018-03-03T08:00:53.548Z,-0.59
2018-03-03T08:02:03.712Z,-0.3
2018-03-03T08:03:13.943Z,-0.22
2018-03-03T08:04:24.118Z,-0.16
2018-03-03T08:05:34.277Z,-0.15
2018-03-03T08:06:44.325Z,-0.12
2018-03-03T08:07:54.522Z,-0.16
2018-03-03T08:09:04.426Z,0.01
2018-03-03T08:10:14.612Z,-0.01
2018-03-03T08:11:24.789Z,-0.02
2018-03-03T08:12:34.930Z,-0.02
2018-03-03T08:13:45.094Z,-0.02
2018-03-03T08:14:54.910Z,-0.1
2018-03-03T08:16:04.522Z,-0.16
2018-03-03T08:17:14.803Z,-0.16
2018-03-03T08:18:24.975Z,-0.02
2018-03-03T08:19:35.249Z,0.17
2018-03-03T08:20:44.840Z,0.22
2018-03-03T08:21:55.053Z,0.33
2018-03-03T08:23:04.942Z,0.36
2018-03-03T08:24:15.131Z,0.36
2018-03-03T08:25:25.048Z,0.53
2018-03-03T08:26:34.917Z,0.54
2018-03-03T08:27:45.079Z,0.53
2018-03-03T08:28:55.017Z,0.66
2018-03-03T08:30:05.245Z,0.86
2018-03-03T08:31:15.397Z,1.2
2018-03-03T08:32:25.565Z,1.18
2018-03-03T08:33:35.525Z,1.3
2018-03-03T08:34:45.396Z,1.43
2018-03-03T08:35:55.231Z,1.54
2018-03-03T08:37:05.403Z,1.57
2018-03-03T08:38:15.768Z,1.58
2018-03-03T08:39:25.640Z,1.82
2018-03-03T08:40:35.842Z,1.9
2018-03-03T08:41:46.107Z,2.03
2018-03-03T08:42:56.276Z,1.91
2018-03-03T08:44:06.548Z,1.8
2018-03-03T08:45:16.799Z,1.9
2018-03-03T08:46:27.009Z,1.82
2018-03-03T08:47:37.191Z,1.7
2018-03-03T08:48:49.339Z,1.74
2018-03-03T08:49:59.630Z,1.7
2018-03-03T08:51:09.548Z,1.72
2018-03-03T08:52:19.495Z,1.57
2018-03-03T08:53:29.508Z,1.7
2018-03-03T08:54:39.683Z,1.85
2018-03-03T08:55:49.813Z,2.06
2018-03-03T08:56:59.749Z,2.06
2018-03-03T08:58:09.932Z,2.27
2018-03-03T08:59:20.112Z,2.26
2018-03-03T09:00:30.305Z,2.24
2018-03-03T09:01:40.101Z,2.27
2018-03-03T09:02:50.281Z,2.34
2018-03-03T09:04:00.463Z,2.13
2018-03-03T09:05:10.284Z,2.3
2018-03-03T09:06:20.737Z,2.42
2018-03-03T09:07:30.887Z,2.46
2018-03-03T09:08:40.772Z,2.53
2018-03-03T09:09:50.686Z,2.59
2018-03-03T09:11:00.869Z,2.59
2018-03-03T09:12:10.850Z,2.87
2018-03-03T09:13:20.676Z,2.92
2018-03-03T09:14:30.839Z,2.87
2018-03-03T09:15:41.130Z,2.87
2018-03-03T09:16:51.301Z,2.89
2018-03-03T09:18:01.451Z,3
2018-03-03T09:19:11.347Z,3.15
2018-03-03T09:20:21.503Z,3.16
2018-03-03T09:21:31.830Z,3.08
2018-03-03T09:22:42.060Z,2.92
2018-03-03T09:23:51.689Z,3.11
2018-03-03T09:25:01.917Z,3.34
2018-03-03T09:26:11.836Z,3.68
2018-03-03T09:27:22.015Z,3.69
2018-03-03T09:28:32.225Z,3.77
2018-03-03T09:29:42.258Z,3.65
2018-03-03T09:30:51.890Z,3.72
2018-03-03T09:32:02.051Z,3.58
2018-03-03T09:33:12.247Z,3.4
2018-03-03T09:34:22.269Z,3.55
2018-03-03T09:35:31.854Z,3.21
2018-03-03T09:36:42.022Z,3
2018-03-03T09:37:52.440Z,2.91
2018-03-03T09:39:02.649Z,2.88
2018-03-03T09:40:12.547Z,2.84
2018-03-03T09:41:22.757Z,2.91
2018-03-03T09:42:32.681Z,2.97
2018-03-03T09:43:42.606Z,2.96
2018-03-03T09:44:53.146Z,3.15
2018-03-03T09:46:03.398Z,3.52
2018-03-03T09:47:13.356Z,3.87
2018-03-03T09:48:23.271Z,4.04
2018-03-03T09:49:33.223Z,3.85
2018-03-03T09:50:43.431Z,3.76
2018-03-03T09:51:53.452Z,3.49
2018-03-03T09:53:03.457Z,3.29
2018-03-03T09:54:13.431Z,3.58
2018-03-03T09:55:23.665Z,3.82
2018-03-03T09:56:33.920Z,4.28
2018-03-03T09:57:44.077Z,4.63
2018-03-03T09:58:54.380Z,4.8
2018-03-03T10:00:04.591Z,4.78
2018-03-03T10:01:14.770Z,4.71
2018-03-03T10:02:25.067Z,4.62
2018-03-03T10:03:35.347Z,4.28
2018-03-03T10:04:45.584Z,4.15
2018-03-03T10:05:55.830Z,4.22
2018-03-03T10:07:06.085Z,4.36
2018-03-03T10:08:15.778Z,4.41
2018-03-03T10:09:26.053Z,4.53
2018-03-03T10:10:36.370Z,4.56
2018-03-03T10:11:46.520Z,4.63
2018-03-03T10:12:56.737Z,4.55
2018-03-03T10:14:06.936Z,4.43
2018-03-03T10:15:16.847Z,4.36
2018-03-03T10:16:27.060Z,4.18
2018-03-03T10:17:37.287Z,4.46
2018-03-03T10:18:47.503Z,4.63
2018-03-03T10:19:57.983Z,4.83
2018-03-03T10:21:07.919Z,4.95
2018-03-03T10:22:17.393Z,5.1
2018-03-03T10:23:27.265Z,5.21
2018-03-03T10:24:37.469Z,4.83
2018-03-03T10:25:47.664Z,4.41
2018-03-03T10:26:57.917Z,4.22
2018-03-03T10:28:09.121Z,4.19
2018-03-03T10:29:19.068Z,4.23
2018-03-03T10:30:29.441Z,4.33
2018-03-03T10:31:39.588Z,4.47
2018-03-03T10:32:49.953Z,4.49
2018-03-03T10:34:00.252Z,4.3
2018-03-03T10:35:10.465Z,4.01
2018-03-03T10:36:20.647Z,3.87
2018-03-03T10:37:30.839Z,3.85
2018-03-03T10:38:40.430Z,3.9
2018-03-03T10:39:50.869Z,4.11
2018-03-03T10:41:00.571Z,4.27
2018-03-03T10:42:10.548Z,4.15
2018-03-03T10:43:20.756Z,4.23
2018-03-03T10:44:31.332Z,4.22
2018-03-03T10:45:41.509Z,4.3
2018-03-03T10:46:51.477Z,4.27
2018-03-03T10:48:01.663Z,4.49
2018-03-03T10:49:11.904Z,4.85
2018-03-03T10:50:22.120Z,5.16
2018-03-03T10:51:32.380Z,5.24
2018-03-03T10:52:42.605Z,5.03
2018-03-03T10:53:52.878Z,4.9
2018-03-03T10:55:03.340Z,4.65
2018-03-03T10:56:12.935Z,4.63
2018-03-03T10:57:23.134Z,4.7
2018-03-03T10:58:33.409Z,4.49
2018-03-03T10:59:43.279Z,4.4
2018-03-03T11:00:52.835Z,4.28
2018-03-03T11:02:02.782Z,4.15
2018-03-03T11:03:13.014Z,4.23
2018-03-03T11:04:23.273Z,4.2
2018-03-03T11:05:32.848Z,4.4
2018-03-03T11:06:42.908Z,4.37
2018-03-03T11:07:52.878Z,4.57
2018-03-03T11:09:03.108Z,4.81
2018-03-03T11:10:13.371Z,5.13
2018-03-03T11:11:23.675Z,5.17
2018-03-03T11:12:33.887Z,5.18
2018-03-03T11:13:44.236Z,5.18
2018-03-03T11:14:54.442Z,5.16
2018-03-03T11:16:04.709Z,5.11
2018-03-03T11:17:14.906Z,5.03
2018-03-03T11:18:25.103Z,4.93
2018-03-03T11:19:35.319Z,5
2018-03-03T11:20:45.228Z,4.92
2018-03-03T11:21:55.172Z,4.7
2018-03-03T11:23:05.175Z,4.78
2018-03-03T11:24:14.712Z,4.77
2018-03-03T11:25:24.769Z,4.73
2018-03-03T11:26:35.016Z,4.73
2018-03-03T11:27:45.373Z,4.65
2018-03-03T11:28:55.351Z,4.43
2018-03-03T11:30:05.575Z,4.28
2018-03-03T11:31:15.767Z,4.15
2018-03-03T11:32:25.673Z,4
2018-03-03T11:33:35.859Z,4.01
2018-03-03T11:34:46.052Z,4.09
2018-03-03T11:35:55.774Z,4.22
2018-03-03T11:37:05.959Z,4.49
2018-03-03T11:38:16.205Z,4.53
2018-03-03T11:39:26.433Z,4.59
2018-03-03T11:40:38.367Z,4.73
2018-03-03T11:41:48.643Z,5.03
2018-03-03T11:42:58.875Z,5.18
2018-03-03T11:44:09.062Z,5.22
2018-03-03T11:45:18.926Z,5.18
2018-03-03T11:46:29.141Z,5.1
2018-03-03T11:47:39.086Z,4.81
2018-03-03T11:48:49.140Z,4.49
2018-03-03T11:50:00.553Z,4.36
2018-03-03T11:51:11.013Z,4.46
2018-03-03T11:52:21.370Z,4.46
2018-03-03T11:53:34.338Z,4.53
2018-03-03T11:54:45.925Z,4.63
2018-03-03T11:57:10.250Z,4.65
2018-03-03T11:58:20.936Z,4.65
2018-03-03T11:59:30.996Z,4.75
2018-03-03T12:00:41.236Z,4.78
2018-03-03T12:01:51.586Z,4.86
2018-03-03T12:03:01.796Z,4.85
2018-03-03T12:04:11.712Z,4.77
2018-03-03T12:05:22.202Z,4.83
2018-03-03T12:06:32.537Z,5.04
2018-03-03T12:07:42.902Z,5.24
2018-03-03T12:08:53.162Z,5.41
2018-03-03T12:10:03.156Z,5.26
2018-03-03T12:11:13.597Z,5.22
2018-03-03T12:12:23.510Z,5.24
2018-03-03T12:13:33.471Z,5.22
2018-03-03T12:14:43.653Z,5.18
2018-03-03T12:15:53.855Z,5.13
2018-03-03T12:17:03.737Z,5.06
2018-03-03T12:18:13.750Z,5.04
2018-03-03T12:19:23.680Z,5
2018-03-03T12:20:33.728Z,4.95
2018-03-03T12:21:43.915Z,4.78
2018-03-03T12:22:53.858Z,4.81
2018-03-03T12:24:03.856Z,4.81
2018-03-03T12:25:14.040Z,5
2018-03-03T12:26:23.997Z,5
2018-03-03T12:27:34.193Z,4.95
2018-03-03T12:28:44.169Z,4.93
2018-03-03T12:29:54.152Z,4.98
2018-03-03T12:31:04.600Z,5.04
2018-03-03T12:32:14.900Z,4.95
2018-03-03T12:33:25.553Z,4.89
2018-03-03T12:34:35.362Z,5.16
2018-03-03T12:35:45.699Z,5.28
2018-03-03T12:36:55.963Z,5.49
2018-03-03T12:38:06.155Z,5.53
2018-03-03T12:39:15.758Z,5.69
2018-03-03T12:40:25.978Z,5.72
2018-03-03T12:41:35.977Z,5.86
2018-03-03T12:42:45.957Z,5.91
2018-03-03T12:43:56.161Z,6.02
2018-03-03T12:45:21.587Z,5.93
2018-03-03T12:46:32.215Z,5.88
2018-03-03T12:47:44.752Z,5.79
2018-03-03T12:50:12.948Z,5.44
2018-03-03T12:51:23.139Z,5.14
2018-03-03T12:52:33.340Z,4.73
2018-03-03T12:53:43.269Z,4.7
2018-03-03T12:54:53.504Z,4.7
2018-03-03T12:56:03.804Z,4.77
2018-03-03T12:57:14.096Z,4.96
2018-03-03T12:58:23.791Z,4.93
2018-03-03T12:59:33.963Z,4.83
2018-03-03T13:00:43.828Z,4.62
2018-03-03T13:01:53.823Z,4.53
2018-03-03T13:03:04.072Z,4.46
2018-03-03T13:04:13.801Z,4.23
2018-03-03T13:05:23.656Z,3.82
2018-03-03T13:06:33.932Z,3.54
2018-03-03T13:07:44.126Z,3.49
2018-03-03T13:08:54.116Z,3.69
2018-03-03T13:10:04.045Z,3.67
2018-03-03T13:11:14.166Z,3.77
2018-03-03T13:12:24.355Z,3.85
2018-03-03T13:13:34.068Z,3.87
2018-03-03T13:14:43.701Z,3.87
2018-03-03T13:15:53.759Z,3.73
2018-03-03T13:17:04.936Z,3.37
2018-03-03T13:18:15.138Z,3.24
2018-03-03T13:19:24.998Z,3.08
2018-03-03T13:20:35.209Z,2.94
2018-03-03T13:21:45.470Z,3.04
2018-03-03T13:22:55.722Z,3.13
2018-03-03T13:24:05.947Z,3.08
2018-03-03T13:25:15.928Z,3.21
2018-03-03T13:26:25.622Z,3.21
2018-03-03T13:27:35.957Z,3.07
2018-03-03T13:28:46.239Z,3.07
2018-03-03T13:29:56.476Z,2.73
2018-03-03T13:31:06.668Z,2.31
2018-03-03T13:32:16.627Z,2.09
2018-03-03T13:33:26.908Z,1.92
2018-03-03T13:34:37.225Z,1.57
2018-03-03T13:35:47.664Z,1.53
2018-03-03T13:36:57.916Z,1.33
2018-03-03T13:38:09.276Z,1.25
2018-03-03T13:39:19.546Z,1.25
2018-03-03T13:40:30.156Z,1.29
2018-03-03T13:41:39.915Z,1.32
2018-03-03T13:42:49.876Z,1.18
2018-03-03T13:44:00.116Z,1.17
2018-03-03T13:45:10.543Z,1.11
2018-03-03T13:46:20.762Z,0.92
2018-03-03T13:47:30.967Z,0.85
2018-03-03T13:48:41.321Z,0.66
2018-03-03T13:49:51.570Z,0.49
2018-03-03T13:51:01.513Z,0.24
2018-03-03T13:52:11.758Z,0.12
2018-03-03T13:53:22.921Z,0.02
2018-03-03T13:54:33.192Z,0.01
2018-03-03T13:55:43.381Z,0.05
2018-03-03T13:56:55.005Z,-0.04
2018-03-03T13:58:04.536Z,-0.13
2018-03-03T13:59:14.517Z,-0.12
2018-03-03T14:00:24.709Z,-0.15
2018-03-03T14:01:34.918Z,-0.13
2018-03-03T14:02:45.141Z,-0.16
2018-03-03T14:03:55.115Z,-0.15
2018-03-03T14:05:04.731Z,-0.1
2018-03-03T14:06:14.666Z,-0.09
2018-03-03T14:07:24.331Z,-0.13
2018-03-03T14:08:34.253Z,-0.12
2018-03-03T14:09:44.440Z,-0.19
2018-03-03T14:10:54.391Z,-0.09
2018-03-03T14:12:04.545Z,-0.17
2018-03-03T14:13:14.598Z,-0.1
2018-03-03T14:14:24.542Z,-0.16
2018-03-03T14:15:34.815Z,-0.15
2018-03-03T14:16:45.017Z,-0.15
2018-03-03T14:17:54.977Z,-0.01
2018-03-03T14:19:04.690Z,0.08
2018-03-03T14:20:14.642Z,0.11
2018-03-03T14:21:24.830Z,0.25
2018-03-03T14:22:34.656Z,0.3
2018-03-03T14:23:44.601Z,0.38
2018-03-03T14:24:54.835Z,0.43
2018-03-03T14:26:05.109Z,0.39
2018-03-03T14:27:16.560Z,0.42
2018-03-03T14:28:26.800Z,0.45
2018-03-03T14:29:37.037Z,0.4
2018-03-03T14:30:47.347Z,0.46
2018-03-03T14:31:57.606Z,0.3
2018-03-03T14:33:07.456Z,0.2
2018-03-03T14:34:16.996Z,0.11
2018-03-03T14:35:27.292Z,-0.02
2018-03-03T14:36:37.527Z,-0.02
2018-03-03T14:37:47.722Z,-0.04
2018-03-03T14:38:57.552Z,-0.07
2018-03-03T14:40:07.769Z,-0.15
2018-03-03T14:41:18.090Z,-0.13
2018-03-03T14:42:27.796Z,-0.16
2018-03-03T14:43:38.033Z,-0.04
2018-03-03T14:44:48.431Z,-0.15
2018-03-03T14:45:58.752Z,-0.12
2018-03-03T14:47:09.081Z,-0.07
2018-03-03T14:48:19.316Z,-0.17
2018-03-03T14:49:29.628Z,-0.22
2018-03-03T14:50:39.841Z,-0.31
2018-03-03T14:51:50.046Z,-0.31
2018-03-03T14:53:00.274Z,-0.4
2018-03-03T14:54:10.524Z,-0.35
2018-03-03T14:55:20.793Z,-0.33
2018-03-03T14:56:31.252Z,-0.33
2018-03-03T14:57:41.578Z,-0.2
2018-03-03T14:58:51.767Z,-0.22
2018-03-03T15:00:01.998Z,-0.23
2018-03-03T15:01:12.167Z,-0.31
2018-03-03T15:02:22.374Z,-0.52
2018-03-03T15:03:32.560Z,-0.52
2018-03-03T15:04:42.804Z,-0.7
2018-03-03T15:05:53.036Z,-0.78
2018-03-03T15:07:03.242Z,-0.88
2018-03-03T15:08:13.545Z,-0.91
2018-03-03T15:09:23.758Z,-0.87
2018-03-03T15:10:33.951Z,-0.85
2018-03-03T15:11:44.170Z,-0.87
2018-03-03T15:12:54.423Z,-0.88
2018-03-03T15:14:04.650Z,-0.88
2018-03-03T15:15:14.850Z,-0.98
2018-03-03T15:16:25.021Z,-1.03
2018-03-03T15:17:35.197Z,-0.98
2018-03-03T15:18:45.421Z,-0.87
2018-03-03T15:19:55.667Z,-0.89
2018-03-03T15:21:05.972Z,-1